createdAt,value
2018-08-10T03:00:58.345Z,0.00
2018-08-10T03:01:58.603Z,0.00
2018-08-10T03:03:59.204Z,0.00
2018-08-10T03:04:59.561Z,0.00
2018-08-10T03:05:59.026Z,0.00
2018-08-10T03:06:59.335Z,0.00
2018-08-10T03:07:59.306Z,0.00
2018-08-10T03:08:57.814Z,0.00
2018-08-10T03:09:57.700Z,0.00
2018-08-10T03:10:57.814Z,0.00
2018-08-10T03:11:58.037Z,0.00
2018-08-10T03:12:58.165Z,0.00
2018-08-10T03:13:58.387Z,0.00
2018-08-10T03:14:58.590Z,0.00
2018-08-10T03:15:58.764Z,0.00
2018-08-10T03:16:58.903Z,0.00
2018-08-10T03:17:59.077Z,0.00
2018-08-10T03:18:59.228Z,0.00
2018-08-10T03:19:59.318Z,0.00
2018-08-10T03:20:59.553Z,0.00
2018-08-10T03:21:59.695Z,0.00
2018-08-10T03:22:59.894Z,0.00
2018-08-10T03:24:00.069Z,0.00
2018-08-10T03:25:00.164Z,0.00
2018-08-10T03:26:00.381Z,0.00
2018-08-10T03:27:00.480Z,0.00
2018-08-10T03:28:00.760Z,0.00
2018-08-10T03:29:00.851Z,0.00
2018-08-10T03:30:01.030Z,0.00
2018-08-10T03:31:01.205Z,4.00
2018-08-10T03:32:01.406Z,4.00
2018-08-10T03:33:01.548Z,4.00
2018-08-10T03:34:01.686Z,4.00
2018-08-10T03:35:01.879Z,0.00
2018-08-10T03:36:01.976Z,0.00
2018-08-10T03:37:02.200Z,0.00
2018-08-10T03:38:02.216Z,4.00
2018-08-10T03:39:02.510Z,4.00
2018-08-10T03:40:02.614Z,8.00
2018-08-10T03:41:02.753Z,8.00
2018-08-10T03:42:02.963Z,8.00
2018-08-10T03:43:03.155Z,8.00
2018-08-10T03:44:03.315Z,12.00
2018-08-10T03:45:03.542Z,16.00
2018-08-10T03:46:03.581Z,16.00
2018-08-10T03:47:03.815Z,16.00
2018-08-10T03:48:04.009Z,20.00
2018-08-10T03:49:04.112Z,20.00
2018-08-10T03:50:04.354Z,20.00
2018-08-10T03:51:04.484Z,28.00
2018-08-10T03:52:04.588Z,32.00
2018-08-10T03:53:04.802Z,32.00
2018-08-10T03:54:04.973Z,36.00
2018-08-10T03:55:05.176Z,40.00
2018-08-10T03:56:05.365Z,44.00
2018-08-10T03:57:05.492Z,44.00
2018-08-10T03:58:05.637Z,44.00
2018-08-10T03:59:05.835Z,44.00
2018-08-10T04:00:06.014Z,52.00
2018-08-10T04:01:06.335Z,60.00
2018-08-10T04:02:06.247Z,76.00
2018-08-10T04:03:06.527Z,80.00
2018-08-10T04:04:06.672Z,76.00
2018-08-10T04:05:06.804Z,76.00
2018-08-10T04:06:06.980Z,80.00
2018-08-10T04:07:07.105Z,88.00
2018-08-10T04:08:07.295Z,96.00
2018-08-10T04:09:07.469Z,108.00
2018-08-10T04:10:07.544Z,120.00
2018-08-10T04:11:07.883Z,132.00
2018-08-10T04:12:08.070Z,140.00
2018-08-10T04:13:08.142Z,144.00
2018-08-10T04:14:08.310Z,148.00
2018-08-10T04:15:08.495Z,156.00
2018-08-10T04:16:08.715Z,184.00
2018-08-10T04:17:08.746Z,196.00
2018-08-10T04:18:08.925Z,200.00
2018-08-10T04:19:09.164Z,212.00
2018-08-10T04:20:09.251Z,252.00
2018-08-10T04:21:09.533Z,308.00
2018-08-10T04:22:09.640Z,348.00
2018-08-10T04:23:09.737Z,392.00
2018-08-10T04:24:09.994Z,436.00
2018-08-10T04:25:10.272Z,476.00
2018-08-10T04:26:10.405Z,528.00
2018-08-10T04:27:10.468Z,572.00
2018-08-10T04:28:10.681Z,612.00
2018-08-10T04:29:10.847Z,656.00
2018-08-10T04:30:11.137Z,704.00
2018-08-10T04:31:11.166Z,744.00
2018-08-10T04:32:11.321Z,792.00
2018-08-10T04:33:11.588Z,836.00
2018-08-10T04:34:11.696Z,880.00
2018-08-10T04:35:11.945Z,924.00
2018-08-10T04:36:12.051Z,964.00
2018-08-10T04:37:12.196Z,1012.00
2018-08-10T04:38:12.357Z,1068.00
2018-08-10T04:39:12.527Z,1120.00
2018-08-10T04:40:12.740Z,1172.00
2018-08-10T04:41:12.977Z,1216.00
2018-08-10T04:42:13.098Z,1264.00
2018-08-10T04:43:13.271Z,1312.00
2018-08-10T04:44:13.421Z,1360.00
2018-08-10T04:45:13.536Z,1404.00
2018-08-10T04:46:13.754Z,1440.00
2018-08-10T04:47:13.924Z,1468.00
2018-08-10T04:48:14.171Z,1492.00
2018-08-10T04:49:14.319Z,1504.00
2018-08-10T04:50:14.385Z,1524.00
2018-08-10T04:51:14.634Z,1540.00
2018-08-10T04:52:14.817Z,1552.00
2018-08-10T04:53:14.891Z,1568.00
2018-08-10T04:54:15.085Z,1584.00
2018-08-10T04:55:15.367Z,1612.00
2018-08-10T04:56:15.355Z,1628.00
2018-08-10T04:57:15.576Z,1628.00
2018-08-10T04:58:15.768Z,1624.00
2018-08-10T04:59:15.932Z,1612.00
2018-08-10T05:00:16.098Z,1620.00
2018-08-10T05:01:16.210Z,1628.00
2018-08-10T05:02:16.410Z,1636.00
2018-08-10T05:03:16.627Z,1656.00
2018-08-10T05:04:16.745Z,1692.00
2018-08-10T05:05:16.941Z,1740.00
2018-08-10T05:06:17.147Z,1780.00
2018-08-10T05:07:17.315Z,1828.00
2018-08-10T05:08:17.466Z,1896.00
2018-08-10T05:09:17.598Z,1956.00
2018-08-10T05:10:17.789Z,2036.00
2018-08-10T05:11:18.013Z,2104.00
2018-08-10T05:12:18.098Z,2176.00
2018-08-10T05:13:18.309Z,2216.00
2018-08-10T05:14:18.484Z,2256.00
2018-08-10T05:15:18.696Z,2312.00
2018-08-10T05:16:19.034Z,2360.00
2018-08-10T05:17:19.025Z,2384.00
2018-08-10T05:18:19.144Z,2408.00
2018-08-10T05:19:19.356Z,2440.00
2018-08-10T05:20:19.501Z,2468.00
2018-08-10T05:21:19.607Z,2504.00
2018-08-10T05:22:19.829Z,2500.00
2018-08-10T05:23:20.126Z,2508.00
2018-08-10T05:24:20.297Z,2488.00
2018-08-10T05:25:20.379Z,2472.00
2018-08-10T05:26:20.635Z,2456.00
2018-08-10T05:27:22.441Z,2416.00
2018-08-10T05:28:33.183Z,2380.00
2018-08-10T05:29:23.918Z,2356.00
2018-08-10T05:30:21.693Z,2348.00
2018-08-10T05:31:24.178Z,2320.00
2018-08-10T05:32:26.285Z,2356.00
2018-08-10T05:33:24.242Z,2388.00
2018-08-10T05:43:05.629Z,2796.00
2018-08-10T06:05:41.215Z,5520.00
2018-08-10T06:06:40.794Z,5840.00
2018-08-10T08:09:21.054Z,8132.00
2018-08-10T09:33:13.469Z,29376.00
2018-08-10T09:47:01.473Z,12208.00
2018-08-10T09:59:16.996Z,16320.00
2018-08-10T10:00:13.868Z,16416.00
2018-08-10T10:01:19.049Z,15204.00
2018-08-10T10:05:57.588Z,13392.00
2018-08-10T10:06:53.997Z,47488.00
2018-08-10T10:38:56.814Z,62016.00
2018-08-10T10:39:51.805Z,40224.00
2018-08-10T10:41:49.031Z,36672.00
2018-08-10T10:55:01.246Z,62272.00
2018-08-10T10:58:58.800Z,57056.00
2018-08-10T10:59:59.129Z,60096.00
2018-08-10T11:00:55.846Z,60640.00
2018-08-10T11:01:54.683Z,61600.00
2018-08-10T11:02:54.811Z,61600.00
2018-08-10T11:03:54.909Z,63776.00
2018-08-10T11:04:55.211Z,66848.00
2018-08-10T11:05:57.238Z,67200.00
2018-08-10T11:06:55.967Z,66400.00
2018-08-10T11:07:56.193Z,68640.00
2018-08-10T11:08:56.192Z,70272.00
2018-08-10T11:09:55.951Z,70432.00
2018-08-10T11:10:56.865Z,70848.00
2018-08-10T11:11:57.154Z,51168.00
2018-08-10T11:13:56.877Z,14524.00
2018-08-10T11:14:57.107Z,71648.00
2018-08-10T11:15:57.384Z,15392.00
2018-08-10T11:16:58.381Z,14748.00
2018-08-10T11:17:57.633Z,55456.00
2018-08-10T11:18:57.829Z,73408.00
2018-08-10T11:20:59.261Z,25088.00
2018-08-10T11:21:58.471Z,80928.00
2018-08-10T11:22:59.202Z,39808.00
2018-08-10T11:23:59.254Z,15760.00
2018-08-10T11:25:00.597Z,15484.00
2018-08-10T11:25:59.238Z,14700.00
2018-08-10T11:27:00.019Z,14724.00
2018-08-10T11:28:00.290Z,77056.00
2018-08-10T11:29:33.507Z,69856.00
2018-08-10T11:31:00.365Z,14132.00
2018-08-10T11:32:00.751Z,15592.00
2018-08-10T11:33:00.693Z,75136.00
2018-08-10T11:34:01.326Z,24864.00
2018-08-10T11:35:01.030Z,16544.00
2018-08-10T11:36:01.296Z,42976.00
2018-08-10T11:37:02.073Z,77408.00
2018-08-10T11:38:05.306Z,77120.00
2018-08-10T11:39:03.110Z,18464.00
2018-08-10T11:40:01.944Z,16736.00
2018-08-10T11:41:02.152Z,83808.00
2018-08-10T11:42:02.561Z,57664.00
2018-08-10T11:43:02.440Z,19776.00
2018-08-10T11:44:02.871Z,82912.00
2018-08-10T11:45:04.282Z,82048.00
2018-08-10T11:46:03.745Z,19584.00
2018-08-10T11:47:03.167Z,33120.00
2018-08-10T11:48:03.202Z,23968.00
2018-08-10T11:49:03.772Z,79552.00
2018-08-10T12:03:43.175Z,83648.00
2018-08-10T12:10:27.026Z,86400.00
2018-08-10T12:11:02.853Z,81952.00
2018-08-10T12:13:44.230Z,85216.00
2018-08-10T12:14:42.615Z,84640.00
2018-08-10T12:15:41.862Z,84896.00
2018-08-10T12:16:42.134Z,88736.00
2018-08-10T12:17:43.249Z,22272.00
2018-08-10T12:18:42.283Z,64544.00
2018-08-10T12:19:42.735Z,25920.00
2018-08-10T12:20:42.720Z,16512.00
2018-08-10T12:21:43.064Z,16864.00
2018-08-10T12:22:43.125Z,90368.00
2018-08-10T12:23:43.638Z,16004.00
2018-08-10T12:24:43.391Z,16480.00
2018-08-10T12:25:43.764Z,15024.00
2018-08-10T12:26:43.658Z,13656.00
2018-08-10T12:27:43.757Z,21952.00
2018-08-10T12:28:44.075Z,12836.00
2018-08-10T12:29:44.080Z,12440.00
2018-08-10T12:30:44.309Z,84736.00
2018-08-10T12:31:44.564Z,84640.00
2018-08-10T12:32:44.647Z,84416.00
2018-08-10T12:33:45.529Z,84416.00
2018-08-10T12:34:45.591Z,84192.00
2018-08-10T12:35:45.476Z,85632.00
2018-08-10T12:37:46.725Z,83840.00
2018-08-10T12:37:48.859Z,83200.00
2018-08-10T12:38:48.140Z,81504.00
2018-08-10T12:39:48.357Z,85120.00
2018-08-10T12:40:48.454Z,87232.00
2018-08-10T12:41:48.654Z,88832.00
2018-08-10T12:42:49.118Z,82912.00
2018-08-10T12:43:49.358Z,78112.00
2018-08-10T12:44:49.452Z,81088.00
2018-08-10T12:45:50.048Z,84992.00
2018-08-10T12:46:50.360Z,83616.00
2018-08-10T12:47:50.050Z,80192.00
2018-08-10T12:48:50.412Z,69216.00
2018-08-10T12:49:50.497Z,82720.00
2018-08-10T12:51:51.627Z,63360.00
2018-08-10T12:54:24.330Z,89632.00
2018-08-10T12:58:54.024Z,80128.00
2018-08-10T12:59:17.560Z,68608.00
2018-08-10T13:00:17.433Z,69216.00
2018-08-10T13:01:17.705Z,75968.00
2018-08-10T13:03:18.750Z,74496.00
2018-08-10T13:04:44.423Z,79360.00
2018-08-10T13:06:55.143Z,90080.00
2018-08-10T13:09:41.691Z,86592.00
2018-08-10T13:13:25.512Z,75232.00
2018-08-10T13:20:35.969Z,10872.00
2018-08-10T13:23:38.018Z,73664.00
2018-08-10T13:23:46.732Z,15744.00
2018-08-10T13:26:02.679Z,12040.00
2018-08-10T13:27:19.782Z,11324.00
2018-08-10T13:27:54.822Z,10748.00
2018-08-10T13:30:21.855Z,14516.00
2018-08-10T13:31:14.383Z,10828.00
2018-08-10T13:32:49.978Z,15632.00
2018-08-10T13:33:49.628Z,15968.00
2018-08-10T13:34:47.985Z,19680.00
2018-08-10T13:35:46.127Z,57376.00
2018-08-10T13:37:46.298Z,17632.00
2018-08-10T13:38:46.648Z,18624.00
2018-08-10T13:39:46.673Z,18752.00
2018-08-10T13:40:47.830Z,21824.00
2018-08-10T13:41:47.016Z,86240.00
2018-08-10T13:42:47.871Z,83072.00
2018-08-10T13:43:47.235Z,40512.00
2018-08-10T13:44:47.375Z,23072.00
2018-08-10T13:45:47.771Z,83424.00
2018-08-10T13:46:48.008Z,23232.00
2018-08-10T13:47:48.150Z,17568.00
2018-08-10T13:48:48.239Z,15572.00
2018-08-10T13:49:48.871Z,15580.00
2018-08-10T13:50:48.919Z,14876.00
2018-08-10T13:51:49.349Z,16352.00
2018-08-10T13:52:49.794Z,15648.00
2018-08-10T13:53:50.206Z,41600.00
2018-08-10T13:54:49.344Z,37504.00
2018-08-10T13:55:49.467Z,14404.00
2018-08-10T13:56:49.793Z,13008.00
2018-08-10T13:57:50.493Z,12788.00
2018-08-10T13:58:50.199Z,12988.00
2018-08-10T13:59:50.590Z,14568.00
2018-08-10T14:00:50.364Z,54880.00
2018-08-10T14:01:50.992Z,80000.00
2018-08-10T14:02:50.887Z,79904.00
2018-08-10T14:03:52.200Z,82432.00
2018-08-10T14:04:52.671Z,87264.00
2018-08-10T14:05:53.301Z,91744.00
2018-08-10T14:06:51.493Z,12584.00
2018-08-10T14:07:53.944Z,11972.00
2018-08-10T14:08:52.859Z,10160.00
2018-08-10T14:09:52.064Z,9580.00
2018-08-10T14:10:52.105Z,8484.00
2018-08-10T14:11:52.426Z,8816.00
2018-08-10T14:12:52.566Z,9748.00
2018-08-10T14:13:52.562Z,10268.00
2018-08-10T14:14:53.672Z,11252.00
2018-08-10T14:16:13.906Z,11956.00
2018-08-10T14:19:30.021Z,13088.00
2018-08-10T14:20:32.228Z,10984.00
2018-08-10T14:21:31.759Z,9336.00
2018-08-10T14:23:32.765Z,7872.00
2018-08-10T14:24:32.676Z,7560.00
2018-08-10T14:25:37.517Z,7436.00
2018-08-10T14:26:35.764Z,7472.00
2018-08-10T14:27:31.555Z,7488.00
2018-08-10T14:28:47.547Z,7816.00
2018-08-10T14:30:46.903Z,7236.00
2018-08-10T14:31:32.269Z,7352.00
2018-08-10T14:32:33.197Z,8124.00
2018-08-10T14:33:34.620Z,9624.00
2018-08-10T14:34:37.279Z,11928.00
2018-08-10T14:35:42.849Z,14488.00
2018-08-10T14:36:42.213Z,16224.00
2018-08-10T14:37:33.311Z,35392.00
2018-08-10T14:38:35.210Z,19680.00
2018-08-10T14:41:56.083Z,10704.00
2018-08-10T14:42:57.939Z,9444.00
2018-08-10T14:44:26.014Z,8784.00
2018-08-10T14:44:57.785Z,8436.00
2018-08-10T14:47:03.039Z,8600.00
2018-08-10T14:48:57.796Z,8992.00
2018-08-10T14:50:00.000Z,9588.00
2018-08-10T14:50:57.231Z,10456.00
2018-08-10T14:51:57.868Z,10880.00
2018-08-10T14:53:57.233Z,9880.00
2018-08-10T14:54:56.559Z,9376.00
2018-08-10T14:55:55.631Z,9028.00
2018-08-10T14:56:55.924Z,8976.00
2018-08-10T14:57:56.047Z,9140.00
2018-08-10T14:58:56.141Z,9684.00
2018-08-10T14:59:57.513Z,10832.00
2018-08-10T15:01:56.710Z,11748.00
2018-08-10T15:02:56.921Z,10576.00
2018-08-10T15:03:56.968Z,10036.00
2018-08-10T15:04:57.293Z,9804.00
2018-08-10T15:05:57.390Z,9640.00
2018-08-10T15:06:57.564Z,9860.00
2018-08-10T15:07:57.748Z,10956.00
2018-08-10T15:08:57.964Z,13820.00
2018-08-10T15:09:58.158Z,34432.00
2018-08-10T15:10:58.271Z,21600.00
2018-08-10T15:12:11.974Z,70144.00
2018-08-10T15:12:59.145Z,63904.00
2018-08-10T15:13:58.831Z,15024.00
2018-08-10T15:14:59.192Z,13432.00
2018-08-10T15:15:59.126Z,14124.00
2018-08-10T15:16:59.712Z,13576.00
2018-08-10T15:17:59.568Z,13944.00
2018-08-10T15:19:00.019Z,13356.00
2018-08-10T15:20:02.461Z,12600.00
2018-08-10T15:21:00.113Z,10592.00
2018-08-10T15:22:00.318Z,8628.00
2018-08-10T15:23:00.592Z,7520.00
2018-08-10T15:24:00.691Z,7040.00
2018-08-10T15:25:01.009Z,6940.00
2018-08-10T15:26:01.003Z,7180.00
2018-08-10T15:27:01.202Z,7596.00
2018-08-10T15:28:01.581Z,8048.00
2018-08-10T15:29:01.616Z,8260.00
2018-08-10T15:30:02.634Z,8568.00
2018-08-10T15:31:01.814Z,24128.00
2018-08-10T15:32:02.816Z,42464.00
2018-08-10T15:33:02.336Z,40032.00
2018-08-10T15:34:02.409Z,37792.00
2018-08-10T15:37:42.334Z,35104.00
2018-08-10T15:39:50.373Z,39360.00
2018-08-10T15:40:39.934Z,7264.00
2018-08-10T15:41:42.271Z,8280.00
2018-08-10T15:44:40.903Z,7784.00
2018-08-10T15:45:38.846Z,7832.00
2018-08-10T15:46:42.418Z,7816.00
2018-08-10T15:48:39.026Z,44384.00
2018-08-10T15:49:38.855Z,51488.00
2018-08-10T15:50:39.127Z,55040.00
2018-08-10T15:51:39.808Z,8280.00
2018-08-10T15:52:39.394Z,8268.00
2018-08-10T15:53:39.589Z,6844.00
2018-08-10T15:54:39.609Z,6080.00
2018-08-10T15:58:43.206Z,5624.00
2018-08-10T16:01:43.438Z,7996.00
2018-08-10T16:02:42.291Z,22080.00
2018-08-10T16:03:41.427Z,7140.00
2018-08-10T16:04:45.451Z,6752.00
2018-08-10T16:09:33.857Z,5336.00
2018-08-10T16:10:26.494Z,8664.00
2018-08-10T16:11:27.599Z,6888.00
2018-08-10T16:12:25.591Z,7052.00
2018-08-10T16:13:25.712Z,6532.00
2018-08-10T16:14:26.879Z,6816.00
2018-08-10T16:15:25.925Z,8488.00
2018-08-10T16:17:26.089Z,9448.00
2018-08-10T16:18:27.042Z,8008.00
2018-08-10T16:20:26.643Z,5948.00
2018-08-10T16:21:26.631Z,5644.00
2018-08-10T16:22:27.042Z,6932.00
2018-08-10T16:23:28.715Z,8216.00
2018-08-10T16:25:28.441Z,5388.00
2018-08-10T16:26:27.525Z,5488.00
2018-08-10T16:27:27.557Z,4788.00
2018-08-10T16:28:28.759Z,4620.00
2018-08-10T16:29:28.027Z,4564.00
2018-08-10T16:34:33.523Z,5044.00
2018-08-10T16:35:59.956Z,8072.00
2018-08-10T16:36:59.604Z,5892.00
2018-08-10T16:37:59.860Z,5256.00
2018-08-10T16:39:00.453Z,5612.00
2018-08-10T16:48:19.332Z,5164.00
2018-08-10T17:01:20.881Z,6408.00
2018-08-10T17:23:48.197Z,3200.00
2018-08-10T19:38:59.778Z,0.00
2018-08-10T19:39:59.164Z,0.00
2018-08-10T20:22:53.114Z,0.00
2018-08-10T20:37:46.858Z,0.00
2018-08-10T20:38:36.660Z,0.00
2018-08-10T20:39:36.828Z,0.00
2018-08-10T20:42:15.261Z,0.00
2018-08-10T20:43:08.183Z,0.00
2018-08-10T20:44:08.248Z,0.00
2018-08-10T20:45:08.770Z,0.00
2018-08-10T20:46:07.535Z,0.00
2018-08-10T20:47:06.774Z,0.00
2018-08-10T20:51:59.881Z,0.00
2018-08-10T20:54:08.629Z,0.00
2018-08-10T20:54:44.929Z,0.00
2018-08-10T21:05:11.362Z,0.00
2018-08-10T21:14:27.486Z,0.00
2018-08-10T21:15:51.891Z,0.00
2018-08-10T21:20:38.434Z,0.00
2018-08-10T21:21:45.252Z,0.00
2018-08-10T21:22:33.469Z,0.00
2018-08-10T21:23:34.112Z,0.00
2018-08-10T21:24:34.401Z,0.00
2018-08-10T21:25:42.688Z,0.00
